Time;durP1;ratioP1;P1;durP2;ratioP2;P2;SDS_P1;SDS_P2;PMS_P1;PMS_P2;Temp;Humidity;BMP_temperature;BMP_pressure;BME280_temperature;BME280_humidity;BME280_pressure;Samples;Min_cycle;Max_cycle;Signal;HPM_P1;HPM_P2
2023/05/05 00:01:19;;;;;;;3.73;3.43;;;18.40;71.30;;;;;;6028873;23;20540;-72
2023/05/05 00:03:47;;;;;;;3.40;3.10;;;18.40;71.40;;;;;;6030335;23;20508;-73
2023/05/05 00:06:16;;;;;;;3.70;3.37;;;18.50;71.60;;;;;;6054718;23;20833;-73
2023/05/05 00:08:45;;;;;;;5.73;3.80;;;18.40;71.60;;;;;;6030603;23;20389;-73
2023/05/05 00:11:13;;;;;;;3.97;3.33;;;18.50;71.60;;;;;;6030277;23;20483;-72
2023/05/05 00:13:41;;;;;;;3.77;3.37;;;18.40;71.50;;;;;;6030711;23;20512;-73
2023/05/05 00:16:10;;;;;;;3.60;3.30;;;18.50;71.70;;;;;;6052866;23;20502;-73
2023/05/05 00:18:39;;;;;;;4.60;4.10;;;18.50;71.80;;;;;;6029960;23;20488;-73
2023/05/05 00:21:08;;;;;;;4.60;3.63;;;18.50;71.90;;;;;;6029742;23;20783;-72
2023/05/05 00:23:36;;;;;;;3.50;3.20;;;18.50;72.00;;;;;;6056173;23;20524;-73
2023/05/05 00:26:04;;;;;;;3.60;2.80;;;18.50;72.00;;;;;;6030264;23;20437;-73
2023/05/05 00:28:33;;;;;;;2.83;2.63;;;18.50;72.10;;;;;;6029932;23;20770;-73
2023/05/05 00:31:01;;;;;;;3.70;3.10;;;18.50;72.20;;;;;;6030474;23;20428;-73
2023/05/05 00:33:30;;;;;;;3.83;3.43;;;18.40;72.10;;;;;;6054662;23;20420;-73
2023/05/05 00:35:59;;;;;;;3.47;3.17;;;18.40;72.10;;;;;;6029654;23;20443;-73
2023/05/05 00:38:28;;;;;;;3.60;3.30;;;18.40;72.10;;;;;;6030759;23;20411;-73
2023/05/05 00:40:56;;;;;;;3.80;3.17;;;18.50;72.40;;;;;;6030322;23;20409;-73
2023/05/05 00:43:27;;;;;;;4.07;3.00;;;18.50;72.40;;;;;;6030245;23;20413;-72
2023/05/05 00:46:01;;;;;;;3.83;3.07;;;18.40;72.30;;;;;;6054347;23;20464;-73
2023/05/05 00:48:31;;;;;;;3.77;3.47;;;18.50;72.40;;;;;;6055658;23;20705;-73
2023/05/05 00:51:01;;;;;;;4.10;3.53;;;18.40;72.40;;;;;;6030763;23;20424;-73
2023/05/05 00:53:29;;;;;;;4.17;3.40;;;18.40;72.40;;;;;;6029652;23;20543;-73
2023/05/05 00:55:58;;;;;;;3.23;2.90;;;18.40;72.40;;;;;;6030033;23;20396;-72
2023/05/05 00:58:27;;;;;;;3.43;3.13;;;18.40;72.50;;;;;;6054010;23;20441;-75
2023/05/05 01:00:56;;;;;;;3.63;3.30;;;18.40;72.60;;;;;;6030555;23;21003;-73
2023/05/05 01:03:24;;;;;;;4.17;3.77;;;18.40;72.60;;;;;;6030148;23;20751;-73
2023/05/05 01:06:03;;;;;;;3.97;3.10;;;18.40;72.60;;;;;;6029474;23;20444;-72
2023/05/05 01:08:45;;;;;;;4.20;3.80;;;18.50;72.80;;;;;;6030010;23;20456;-72
2023/05/05 01:11:21;;;;;;;3.10;2.90;;;18.50;72.80;;;;;;6029490;23;20444;-73
2023/05/05 01:14:01;;;;;;;5.20;3.30;;;18.40;72.70;;;;;;6030882;23;20537;-73
2023/05/05 01:16:32;;;;;;;3.70;3.33;;;18.40;72.70;;;;;;6028381;23;20460;-73
2023/05/05 01:19:09;;;;;;;3.60;2.70;;;18.40;72.80;;;;;;6031761;23;20385;-73
2023/05/05 01:21:43;;;;;;;4.37;4.03;;;18.40;72.90;;;;;;6030586;23;20486;-73
2023/05/05 01:24:37;;;;;;;4.13;3.73;;;18.40;72.80;;;;;;6031930;23;20397;-74
2023/05/05 01:27:29;;;;;;;5.23;3.60;;;18.40;72.90;;;;;;6030345;23;20441;-72
2023/05/05 01:30:08;;;;;;;3.97;3.57;;;18.40;72.90;;;;;;6031180;23;20471;-73
2023/05/05 01:32:41;;;;;;;3.57;3.27;;;18.40;72.90;;;;;;6031006;23;20425;-73
2023/05/05 01:35:15;;;;;;;3.83;3.53;;;18.40;73.00;;;;;;6031934;23;20381;-73
2023/05/05 01:37:49;;;;;;;3.87;3.53;;;18.40;73.00;;;;;;6031489;23;20814;-73
2023/05/05 01:40:22;;;;;;;3.50;3.20;;;18.40;73.10;;;;;;6029572;23;20726;-72
2023/05/05 01:42:51;;;;;;;4.30;4.00;;;18.40;73.10;;;;;;6032023;23;20448;-72
2023/05/05 01:45:22;;;;;;;4.80;3.30;;;18.40;73.10;;;;;;6030581;23;20397;-72
2023/05/05 01:47:54;;;;;;;3.20;2.90;;;18.40;73.10;;;;;;6030558;23;20405;-73
2023/05/05 01:50:24;;;;;;;3.27;2.97;;;18.40;73.10;;;;;;6030344;23;20951;-73
2023/05/05 01:52:54;;;;;;;3.67;3.33;;;18.40;73.10;;;;;;6030183;23;20409;-73
2023/05/05 01:55:25;;;;;;;3.70;3.40;;;18.40;73.10;;;;;;6054347;23;20800;-73
2023/05/05 01:57:55;;;;;;;3.53;3.23;;;18.40;73.30;;;;;;6030567;23;20479;-72
2023/05/05 02:00:25;;;;;;;5.40;3.60;;;18.40;73.20;;;;;;6031748;23;20480;-73
2023/05/05 02:02:56;;;;;;;3.73;3.20;;;18.40;73.30;;;;;;6033781;23;20428;-73
2023/05/05 02:05:26;;;;;;;3.90;3.50;;;18.40;73.20;;;;;;6033304;23;20433;-73
2023/05/05 02:07:58;;;;;;;3.50;3.20;;;18.40;73.30;;;;;;6034063;23;20848;-73
2023/05/05 02:10:28;;;;;;;4.17;3.77;;;18.40;73.30;;;;;;6034244;23;20424;-73
2023/05/05 02:12:58;;;;;;;3.30;3.00;;;18.40;73.30;;;;;;6034002;23;20939;-73
2023/05/05 02:15:29;;;;;;;3.80;3.20;;;18.40;73.30;;;;;;6033252;23;20782;-72
2023/05/05 02:18:00;;;;;;;2.60;2.40;;;18.40;73.40;;;;;;6033571;23;20374;-73
2023/05/05 02:20:31;;;;;;;3.70;3.20;;;18.40;73.40;;;;;;6060007;23;20416;-73
2023/05/05 02:23:00;;;;;;;3.80;3.40;;;18.40;73.40;;;;;;6034028;23;20448;-72
2023/05/05 02:25:38;;;;;;;3.47;3.17;;;18.40;73.50;;;;;;6032633;23;20777;-73
2023/05/05 02:28:10;;;;;;;3.50;3.20;;;18.40;73.40;;;;;;6034835;23;20460;-73
2023/05/05 02:30:39;;;;;;;3.27;2.97;;;18.40;73.50;;;;;;6033665;23;20750;-73
2023/05/05 02:33:11;;;;;;;2.90;2.70;;;18.40;73.40;;;;;;6033115;23;20421;-72
2023/05/05 02:35:42;;;;;;;4.07;3.77;;;18.40;73.60;;;;;;6032760;23;20624;-73
2023/05/05 02:38:17;;;;;;;3.13;2.83;;;18.40;73.50;;;;;;6035583;23;20442;-72
2023/05/05 02:40:51;;;;;;;4.77;3.43;;;18.40;73.50;;;;;;6033248;23;20870;-73
2023/05/05 02:43:23;;;;;;;3.80;3.40;;;18.40;73.50;;;;;;6034710;23;20969;-73
2023/05/05 02:45:52;;;;;;;3.70;2.87;;;18.40;73.60;;;;;;6032211;23;20809;-72
2023/05/05 02:48:23;;;;;;;4.40;3.13;;;18.40;73.60;;;;;;6034738;23;20377;-72
2023/05/05 02:50:53;;;;;;;3.33;2.93;;;18.30;73.60;;;;;;6033969;23;20523;-73
2023/05/05 02:53:29;;;;;;;3.20;2.90;;;18.40;73.70;;;;;;6034111;23;20413;-73
2023/05/05 02:56:12;;;;;;;3.80;3.20;;;18.40;73.70;;;;;;6032266;23;20463;-73
2023/05/05 02:58:52;;;;;;;3.23;2.93;;;18.30;73.60;;;;;;6035036;23;20404;-73
2023/05/05 03:01:29;;;;;;;3.40;2.93;;;18.30;73.60;;;;;;6032179;23;20440;-73
2023/05/05 03:04:07;;;;;;;3.50;3.20;;;18.30;73.60;;;;;;6031946;23;20752;-72
2023/05/05 03:06:43;;;;;;;3.20;2.90;;;18.30;73.60;;;;;;6030836;23;20437;-73
2023/05/05 03:09:22;;;;;;;4.70;3.10;;;18.30;73.60;;;;;;6032297;23;20442;-73
2023/05/05 03:11:59;;;;;;;3.00;2.70;;;18.30;73.60;;;;;;6028740;23;20454;-73
2023/05/05 03:14:35;;;;;;;4.90;3.20;;;18.30;73.60;;;;;;6031731;23;20381;-73
2023/05/05 03:17:06;;;;;;;3.07;2.77;;;18.30;73.80;;;;;;6029630;23;20470;-73
2023/05/05 03:19:38;;;;;;;3.90;3.43;;;18.30;73.70;;;;;;6057411;23;20385;-73
2023/05/05 03:22:06;;;;;;;3.07;2.77;;;18.30;73.80;;;;;;6030054;23;20441;-73
2023/05/05 03:24:37;;;;;;;5.23;2.73;;;18.30;73.80;;;;;;6031304;23;20534;-72
2023/05/05 03:27:09;;;;;;;3.00;2.80;;;18.30;73.80;;;;;;6031840;23;20780;-73
2023/05/05 03:29:39;;;;;;;3.13;2.77;;;18.30;73.80;;;;;;6033156;23;20381;-73
2023/05/05 03:32:12;;;;;;;4.37;3.07;;;18.30;73.90;;;;;;6053683;23;20955;-73
2023/05/05 03:34:43;;;;;;;3.60;2.37;;;18.30;73.80;;;;;;6031370;23;20531;-73
2023/05/05 03:37:11;;;;;;;3.30;3.00;;;18.30;73.80;;;;;;6054594;23;20494;-71
2023/05/05 03:39:42;;;;;;;3.23;2.90;;;18.30;73.70;;;;;;6031478;23;20386;-73
2023/05/05 03:42:12;;;;;;;4.47;3.50;;;18.30;73.80;;;;;;6029977;23;20451;-71
2023/05/05 03:44:40;;;;;;;3.93;3.53;;;18.30;73.80;;;;;;6030786;23;20454;-71
2023/05/05 03:47:08;;;;;;;3.40;3.10;;;18.30;73.80;;;;;;6029531;23;21188;-73
2023/05/05 03:49:38;;;;;;;3.30;3.00;;;18.30;73.80;;;;;;6031342;23;20784;-73
2023/05/05 03:52:09;;;;;;;3.63;3.30;;;18.30;73.80;;;;;;6029124;23;20538;-72
2023/05/05 03:54:41;;;;;;;3.80;3.50;;;18.30;73.90;;;;;;6031637;23;20439;-74
2023/05/05 03:57:09;;;;;;;3.00;2.70;;;18.30;73.90;;;;;;6029869;23;20562;-74
2023/05/05 03:59:37;;;;;;;3.63;3.07;;;18.30;73.80;;;;;;6056951;23;20796;-73
2023/05/05 04:02:06;;;;;;;3.87;3.20;;;18.20;73.70;;;;;;6030247;23;20441;-71
2023/05/05 04:04:35;;;;;;;3.50;3.20;;;18.20;73.80;;;;;;6053637;23;20393;-73
2023/05/05 04:07:03;;;;;;;3.70;3.10;;;18.20;73.90;;;;;;6054622;23;20468;-73
2023/05/05 04:09:33;;;;;;;3.30;3.00;;;18.20;73.80;;;;;;6030231;23;20407;-73
2023/05/05 04:12:02;;;;;;;3.37;3.07;;;18.30;74.00;;;;;;6031202;23;20781;-72
2023/05/05 04:14:30;;;;;;;3.50;3.03;;;18.20;73.90;;;;;;6030431;23;20722;-73
2023/05/05 04:16:59;;;;;;;3.80;3.47;;;18.20;73.90;;;;;;6029755;23;20443;-73
2023/05/05 04:19:27;;;;;;;3.80;3.30;;;18.20;73.90;;;;;;6031286;23;20467;-74
2023/05/05 04:21:55;;;;;;;3.67;3.37;;;18.20;74.00;;;;;;6030492;23;20715;-72
2023/05/05 04:24:24;;;;;;;3.50;3.20;;;18.30;74.10;;;;;;6054981;23;20411;-73
2023/05/05 04:26:56;;;;;;;4.60;3.80;;;18.20;74.10;;;;;;6029471;23;20436;-73
2023/05/05 04:29:25;;;;;;;4.10;3.70;;;18.20;74.20;;;;;;6032072;23;20385;-73
2023/05/05 04:31:55;;;;;;;4.10;3.23;;;18.20;74.20;;;;;;6029644;23;20543;-73
2023/05/05 04:34:23;;;;;;;3.93;3.63;;;18.20;74.20;;;;;;6031558;23;20393;-73
2023/05/05 04:36:52;;;;;;;3.07;2.77;;;18.20;74.20;;;;;;6030214;23;20444;-73
2023/05/05 04:39:21;;;;;;;4.73;3.30;;;18.20;74.40;;;;;;6030798;23;20411;-73
2023/05/05 04:41:50;;;;;;;3.27;2.97;;;18.20;74.30;;;;;;6030118;23;20537;-73
2023/05/05 04:44:20;;;;;;;3.63;3.23;;;18.20;74.50;;;;;;6031128;23;20451;-73
2023/05/05 04:46:49;;;;;;;3.33;3.03;;;18.20;74.50;;;;;;6029868;23;20472;-73
2023/05/05 04:49:17;;;;;;;4.17;3.70;;;18.20;74.50;;;;;;6055102;23;20484;-73
2023/05/05 04:51:46;;;;;;;3.97;3.57;;;18.20;74.60;;;;;;6030341;23;20974;-73
2023/05/05 04:54:14;;;;;;;3.87;2.87;;;18.20;74.70;;;;;;6031637;23;20484;-73
2023/05/05 04:56:43;;;;;;;3.60;3.20;;;18.20;74.70;;;;;;6030830;23;20447;-73
2023/05/05 04:59:11;;;;;;;4.47;3.33;;;18.20;74.70;;;;;;6032136;23;20397;-73
2023/05/05 05:01:41;;;;;;;4.30;3.90;;;18.20;74.70;;;;;;6031785;23;20463;-72
2023/05/05 05:04:10;;;;;;;3.60;3.30;;;18.20;74.70;;;;;;6031790;23;20416;-73
2023/05/05 05:06:39;;;;;;;3.67;3.37;;;18.20;74.70;;;;;;6031437;23;20528;-72
2023/05/05 05:09:07;;;;;;;5.03;3.80;;;18.20;74.80;;;;;;6032360;23;20373;-74
2023/05/05 05:11:36;;;;;;;4.47;3.53;;;18.20;74.70;;;;;;6057594;23;20966;-73
2023/05/05 05:14:04;;;;;;;3.27;3.07;;;18.20;74.90;;;;;;6032349;23;20420;-73
2023/05/05 05:16:32;;;;;;;4.33;3.20;;;18.20;74.80;;;;;;6030659;23;20966;-72
2023/05/05 05:19:02;;;;;;;4.77;3.40;;;18.20;74.90;;;;;;6032056;23;20483;-74
2023/05/05 05:21:32;;;;;;;3.07;2.77;;;18.20;75.00;;;;;;6032528;23;21123;-73
2023/05/05 05:24:01;;;;;;;3.40;3.10;;;18.20;75.00;;;;;;6032265;23;20413;-73
2023/05/05 05:26:30;;;;;;;3.50;3.20;;;18.20;75.10;;;;;;6031495;23;20443;-73
2023/05/05 05:28:58;;;;;;;3.90;3.07;;;18.20;75.20;;;;;;6032871;23;20386;-73
2023/05/05 05:31:27;;;;;;;3.20;2.80;;;18.20;75.20;;;;;;6031266;23;20464;-73
2023/05/05 05:33:56;;;;;;;4.30;3.80;;;18.20;75.10;;;;;;6032264;23;20428;-73
2023/05/05 05:36:26;;;;;;;3.83;3.47;;;18.20;75.20;;;;;;6031577;23;20460;-73
2023/05/05 05:38:55;;;;;;;3.17;2.87;;;18.20;75.20;;;;;;6032440;23;20389;-73
2023/05/05 05:41:23;;;;;;;4.00;3.60;;;18.20;75.20;;;;;;6031996;23;20423;-73
2023/05/05 05:43:52;;;;;;;3.57;3.27;;;18.20;75.20;;;;;;6057339;23;20431;-73
2023/05/05 05:46:20;;;;;;;3.70;3.40;;;18.20;75.20;;;;;;6054688;23;20412;-73
2023/05/05 05:48:49;;;;;;;4.63;4.23;;;18.20;75.30;;;;;;6032591;23;20477;-73
2023/05/05 05:51:18;;;;;;;3.60;3.30;;;18.20;75.40;;;;;;6031564;23;20443;-73
2023/05/05 05:53:50;;;;;;;3.40;3.10;;;18.20;75.50;;;;;;6032122;23;20439;-73
2023/05/05 05:56:20;;;;;;;3.97;3.57;;;18.20;75.50;;;;;;6032004;23;20472;-73
2023/05/05 05:58:48;;;;;;;4.23;3.90;;;18.20;75.50;;;;;;6032458;23;20408;-73
2023/05/05 06:01:17;;;;;;;3.90;3.60;;;18.20;75.60;;;;;;6031493;23;20463;-72
2023/05/05 06:03:46;;;;;;;4.10;3.70;;;18.20;75.50;;;;;;6031810;23;20508;-72
2023/05/05 06:06:15;;;;;;;4.20;3.80;;;18.20;75.50;;;;;;6155919;23;20483;-73
2023/05/05 06:08:44;;;;;;;4.43;3.37;;;18.20;75.60;;;;;;6031701;23;20440;-73
2023/05/05 06:11:14;;;;;;;4.07;3.67;;;18.20;75.60;;;;;;6031352;23;20843;-73
2023/05/05 06:13:43;;;;;;;4.20;3.60;;;18.20;75.70;;;;;;6031573;23;20429;-73
2023/05/05 06:16:11;;;;;;;3.43;3.13;;;18.20;75.60;;;;;;6030445;23;20506;-73
2023/05/05 06:18:42;;;;;;;3.20;2.90;;;18.20;75.60;;;;;;6031983;23;20385;-72
2023/05/05 06:21:12;;;;;;;3.53;3.23;;;18.20;75.60;;;;;;6030833;23;20441;-72
2023/05/05 06:23:41;;;;;;;3.47;3.17;;;18.20;75.50;;;;;;6032656;23;20540;-73
2023/05/05 06:26:09;;;;;;;3.07;2.80;;;18.20;75.50;;;;;;6030302;23;20610;-72
2023/05/05 06:28:40;;;;;;;3.50;3.20;;;18.20;75.40;;;;;;6033123;23;20488;-73
2023/05/05 06:31:08;;;;;;;3.53;3.13;;;18.30;75.50;;;;;;6029525;23;20531;-72
2023/05/05 06:33:37;;;;;;;4.17;3.30;;;18.20;75.30;;;;;;6058069;23;20429;-73
2023/05/05 06:36:06;;;;;;;3.30;3.00;;;18.20;75.40;;;;;;6029984;23;20440;-73
2023/05/05 06:38:34;;;;;;;3.43;3.00;;;18.30;75.50;;;;;;6057233;23;20397;-72
2023/05/05 06:41:02;;;;;;;3.50;3.20;;;18.20;75.40;;;;;;6030674;23;20465;-72
2023/05/05 06:43:31;;;;;;;7.30;4.00;;;18.20;75.40;;;;;;6056312;23;21077;-65
2023/05/05 06:46:05;;;;;;;3.47;3.17;;;18.30;75.60;;;;;;6030070;23;20401;-66
2023/05/05 06:48:34;;;;;;;3.67;3.30;;;18.20;75.30;;;;;;6032554;23;20377;-65
2023/05/05 06:51:03;;;;;;;3.03;2.73;;;18.30;75.30;;;;;;6028123;23;20436;-65
2023/05/05 06:53:31;;;;;;;3.60;2.50;;;18.30;75.20;;;;;;6029288;23;20432;-66
2023/05/05 06:56:00;;;;;;;3.17;2.87;;;18.30;75.10;;;;;;6028616;23;20385;-66
2023/05/05 06:58:28;;;;;;;5.33;3.30;;;18.30;75.00;;;;;;6031726;23;20400;-66
2023/05/05 07:00:57;;;;;;;3.20;2.90;;;18.30;74.90;;;;;;6030580;23;20742;-67
2023/05/05 07:03:27;;;;;;;2.97;2.67;;;18.30;74.90;;;;;;6055890;23;20421;-66
2023/05/05 07:05:56;;;;;;;2.80;2.60;;;18.30;74.90;;;;;;6029750;23;20615;-64
2023/05/05 07:08:25;;;;;;;3.20;2.90;;;18.30;74.90;;;;;;6031809;23;20415;-65
2023/05/05 07:10:54;;;;;;;2.97;2.57;;;18.30;74.90;;;;;;6030769;23;20401;-66
2023/05/05 07:13:22;;;;;;;3.53;3.23;;;18.30;74.80;;;;;;6054949;23;20428;-65
2023/05/05 07:15:50;;;;;;;3.03;2.73;;;18.30;74.70;;;;;;6053085;23;20451;-66
2023/05/05 07:18:20;;;;;;;2.73;2.53;;;18.30;74.70;;;;;;6029694;23;20393;-66
2023/05/05 07:20:50;;;;;;;3.03;2.63;;;18.30;74.80;;;;;;6031743;23;20412;-66
2023/05/05 07:23:18;;;;;;;3.27;2.90;;;18.30;74.70;;;;;;6031708;23;20501;-65
2023/05/05 07:25:47;;;;;;;3.30;3.00;;;18.40;74.90;;;;;;6030434;23;20986;-66
2023/05/05 07:28:15;;;;;;;3.20;3.00;;;18.30;74.80;;;;;;6030794;23;20484;-66
2023/05/05 07:30:44;;;;;;;3.50;3.20;;;18.40;74.70;;;;;;6030946;23;20435;-65
2023/05/05 07:33:13;;;;;;;4.03;2.83;;;18.40;74.70;;;;;;6030595;23;20487;-65
2023/05/05 07:35:41;;;;;;;3.53;3.20;;;18.40;74.70;;;;;;6028863;23;20440;-65
2023/05/05 07:38:11;;;;;;;4.13;3.73;;;18.40;74.70;;;;;;6054103;23;20401;-65
2023/05/05 07:40:40;;;;;;;3.40;3.10;;;18.40;74.70;;;;;;6029283;23;20408;-66
2023/05/05 07:43:08;;;;;;;3.50;3.13;;;18.40;74.70;;;;;;6030732;23;20934;-65
2023/05/05 07:45:36;;;;;;;4.10;3.20;;;18.40;74.60;;;;;;6028275;23;20433;-64
2023/05/05 07:48:05;;;;;;;3.37;3.07;;;18.40;74.60;;;;;;6030557;23;20401;-66
2023/05/05 07:50:34;;;;;;;3.13;2.83;;;18.40;74.50;;;;;;6055283;23;20389;-67
2023/05/05 07:53:02;;;;;;;4.40;4.00;;;18.40;74.40;;;;;;6030576;23;20428;-66
2023/05/05 07:55:43;;;;;;;6.33;5.07;;;18.50;74.50;;;;;;6030156;23;20846;-66
2023/05/05 07:58:12;;;;;;;4.70;4.13;;;18.60;75.20;;;;;;6030671;23;20887;-65
2023/05/05 08:00:42;;;;;;;5.30;4.80;;;;;;;;;;6030411;23;20400;-66
2023/05/05 08:03:11;;;;;;;6.40;4.60;;;18.70;73.10;;;;;;6054524;23;20431;-66
2023/05/05 08:05:40;;;;;;;5.10;4.60;;;18.70;74.10;;;;;;6029293;23;20483;-67
2023/05/05 08:08:08;;;;;;;5.00;4.37;;;18.60;74.20;;;;;;6052232;23;20405;-67
2023/05/05 08:10:37;;;;;;;4.93;4.00;;;18.60;74.20;;;;;;6129740;23;20836;-66
2023/05/05 08:13:06;;;;;;;4.77;4.23;;;18.60;74.20;;;;;;6031876;23;20785;-65
2023/05/05 08:15:35;;;;;;;4.20;3.80;;;18.50;74.20;;;;;;6029415;23;20427;-67
2023/05/05 08:18:03;;;;;;;5.20;3.70;;;18.50;74.40;;;;;;6055094;23;20432;-66
2023/05/05 08:20:32;;;;;;;4.60;4.20;;;18.50;74.40;;;;;;6055643;23;20463;-64
2023/05/05 08:23:00;;;;;;;5.10;4.67;;;18.60;74.20;;;;;;6030772;23;20985;-66
2023/05/05 08:25:29;;;;;;;4.10;3.70;;;18.50;74.30;;;;;;6030384;23;20440;-66
2023/05/05 08:27:57;;;;;;;8.00;4.17;;;18.50;74.30;;;;;;6028928;23;20432;-65
2023/05/05 08:30:27;;;;;;;4.00;3.60;;;18.60;74.60;;;;;;6031100;23;20845;-66
2023/05/05 08:32:55;;;;;;;6.53;3.93;;;18.60;74.70;;;;;;6028908;23;20471;-66
2023/05/05 08:35:24;;;;;;;4.87;4.00;;;18.50;74.60;;;;;;6055098;23;20494;-66
2023/05/05 08:37:53;;;;;;;3.87;3.57;;;18.60;74.50;;;;;;6029081;23;20402;-65
2023/05/05 08:40:31;;;;;;;4.30;3.90;;;18.60;74.70;;;;;;6028559;23;20397;-65
2023/05/05 08:43:01;;;;;;;3.67;3.37;;;18.50;74.50;;;;;;6030531;23;20408;-65
2023/05/05 08:45:31;;;;;;;5.10;3.83;;;18.50;74.60;;;;;;6029043;23;20539;-67
2023/05/05 08:48:02;;;;;;;3.57;3.27;;;18.50;74.70;;;;;;6029764;23;20403;-66
2023/05/05 08:50:32;;;;;;;3.63;3.33;;;18.60;74.60;;;;;;6004752;23;20523;-65
2023/05/05 08:53:10;;;;;;;4.50;4.10;;;18.50;74.60;;;;;;6030356;23;20833;-65
2023/05/05 08:55:45;;;;;;;4.40;4.00;;;18.50;74.50;;;;;;6054174;23;20448;-65
2023/05/05 08:58:15;;;;;;;4.30;3.90;;;18.50;74.70;;;;;;6030197;23;20405;-66
2023/05/05 09:00:46;;;;;;;4.17;3.77;;;18.60;74.90;;;;;;6029641;23;20464;-65
2023/05/05 09:03:15;;;;;;;5.20;4.60;;;18.60;74.90;;;;;;6029802;23;20413;-67
2023/05/05 09:05:44;;;;;;;4.90;4.40;;;18.60;75.10;;;;;;6053651;23;20409;-66
2023/05/05 09:08:13;;;;;;;5.00;3.60;;;18.60;74.90;;;;;;6030610;23;20764;-66
2023/05/05 09:10:43;;;;;;;4.93;4.53;;;18.60;74.70;;;;;;6029520;23;20409;-65
2023/05/05 09:13:12;;;;;;;3.67;3.37;;;18.60;74.70;;;;;;6031338;23;20491;-66
2023/05/05 09:15:41;;;;;;;4.30;3.90;;;18.60;74.60;;;;;;6052201;23;20440;-66
2023/05/05 09:18:11;;;;;;;3.13;2.83;;;18.60;74.70;;;;;;6054251;23;20476;-66
2023/05/05 09:20:41;;;;;;;4.03;3.43;;;18.60;74.70;;;;;;6052945;23;20436;-66
2023/05/05 09:23:11;;;;;;;3.60;3.30;;;18.50;74.60;;;;;;6029647;23;20416;-66
2023/05/05 09:25:40;;;;;;;4.30;3.50;;;18.60;74.60;;;;;;6052632;23;20386;-66
2023/05/05 09:28:10;;;;;;;3.93;3.63;;;18.60;74.70;;;;;;6029696;23;21159;-65
2023/05/05 09:30:40;;;;;;;3.73;3.43;;;18.60;74.70;;;;;;6028978;23;21236;-66
2023/05/05 09:33:09;;;;;;;4.97;3.53;;;18.60;74.70;;;;;;6027788;23;20445;-65
2023/05/05 09:35:53;;;;;;;3.83;3.53;;;18.60;75.00;;;;;;6054158;23;20432;-63
2023/05/05 09:38:23;;;;;;;3.80;3.50;;;18.70;74.30;;;;;;6029638;23;20480;-64
2023/05/05 09:40:52;;;;;;;5.87;3.87;;;18.80;74.20;;;;;;6031001;23;20377;-64
2023/05/05 09:43:23;;;;;;;3.57;3.27;;;18.90;74.60;;;;;;6030520;23;20798;-65
2023/05/05 09:45:52;;;;;;;5.10;4.20;;;18.90;74.00;;;;;;6029793;23;20444;-64
2023/05/05 09:48:25;;;;;;;4.87;4.43;;;18.90;74.10;;;;;;6031855;23;20396;-65
2023/05/05 09:50:56;;;;;;;4.47;4.07;;;18.90;74.00;;;;;;6054296;23;20398;-65
2023/05/05 09:53:26;;;;;;;4.40;3.50;;;18.90;74.10;;;;;;6055749;23;20467;-64
2023/05/05 09:55:55;;;;;;;4.57;3.77;;;18.90;74.00;;;;;;6029433;23;20437;-65
2023/05/05 09:58:25;;;;;;;4.53;3.70;;;18.90;74.20;;;;;;6056897;23;20401;-63
2023/05/05 10:00:55;;;;;;;4.17;3.40;;;18.90;74.40;;;;;;6031530;23;20386;-65
2023/05/05 10:03:24;;;;;;;5.13;4.03;;;18.90;74.30;;;;;;6053495;23;20417;-65
2023/05/05 10:05:56;;;;;;;4.93;3.30;;;18.90;74.60;;;;;;6028781;23;20437;-65
2023/05/05 10:08:25;;;;;;;4.00;3.30;;;18.90;74.90;;;;;;6029948;23;20392;-65
2023/05/05 10:10:58;;;;;;;4.77;3.80;;;18.80;74.80;;;;;;6030624;23;20765;-66
2023/05/05 10:13:27;;;;;;;4.97;2.97;;;18.80;76.30;;;;;;6032142;23;20416;-65
2023/05/05 10:15:56;;;;;;;5.07;3.37;;;18.80;74.90;;;;;;6030403;23;20777;-65
2023/05/05 10:18:27;;;;;;;6.73;4.10;;;18.80;75.20;;;;;;6030966;23;20429;-66
2023/05/05 10:33:44;;;;;;;6.50;3.90;;;18.60;82.00;;;;;;6028048;23;20404;-46
2023/05/05 10:36:16;;;;;;;2.97;2.60;;;18.60;88.30;;;;;;6030231;23;20441;-47
2023/05/05 10:38:46;;;;;;;5.77;2.80;;;18.50;84.00;;;;;;6029423;23;20374;-47
2023/05/05 10:41:16;;;;;;;3.50;3.10;;;18.50;84.00;;;;;;6028210;23;20438;-46
2023/05/05 10:43:45;;;;;;;4.83;3.13;;;18.50;85.30;;;;;;6054256;23;20427;-45
2023/05/05 10:46:14;;;;;;;5.40;3.37;;;18.50;86.80;;;;;;6031490;23;20465;-48
2023/05/05 10:48:54;;;;;;;4.60;3.10;;;18.40;85.80;;;;;;6053277;23;20481;-47
2023/05/05 10:51:31;;;;;;;4.30;3.60;;;18.40;88.30;;;;;;6028442;23;20382;-46
2023/05/05 10:54:14;;;;;;;4.57;2.80;;;18.40;87.50;;;;;;6028756;23;20375;-46
2023/05/05 10:56:43;;;;;;;4.93;3.23;;;18.40;90.00;;;;;;6028499;23;20441;-47
2023/05/05 10:59:41;;;;;;;4.60;3.53;;;18.40;88.70;;;;;;6029285;23;20389;-45
2023/05/05 11:02:23;;;;;;;6.40;3.73;;;18.40;88.00;;;;;;6028697;23;20845;-45
2023/05/05 11:05:09;;;;;;;5.67;4.20;;;18.40;87.60;;;;;;6029421;23;20386;-45
2023/05/05 11:07:38;;;;;;;5.13;4.00;;;18.40;87.30;;;;;;6028612;23;20445;-45
2023/05/05 11:10:08;;;;;;;4.50;4.10;;;18.30;87.90;;;;;;6031082;23;20999;-45
2023/05/05 11:13:11;;;;;;;4.10;3.70;;;18.30;88.70;;;;;;6030112;23;20437;-45
2023/05/05 11:15:40;;;;;;;3.30;3.00;;;18.30;88.00;;;;;;6028033;23;20445;-44
2023/05/05 11:18:34;;;;;;;3.27;2.80;;;18.30;88.60;;;;;;6029896;23;20401;-45
2023/05/05 11:21:15;;;;;;;3.10;2.80;;;18.40;90.00;;;;;;6029197;23;20515;-45
2023/05/05 11:23:49;;;;;;;3.50;3.20;;;18.40;89.60;;;;;;6029900;23;20405;-45
2023/05/05 11:26:51;;;;;;;4.10;2.93;;;18.40;90.30;;;;;;6028846;23;20504;-45
2023/05/05 11:29:19;;;;;;;5.17;3.60;;;18.40;90.50;;;;;;6053723;23;20429;-45
2023/05/05 11:32:11;;;;;;;3.43;2.83;;;18.40;90.10;;;;;;6028209;23;20496;-45
2023/05/05 11:34:49;;;;;;;6.90;4.20;;;18.50;88.50;;;;;;6030253;23;20389;-46
2023/05/05 11:37:25;;;;;;;3.70;3.30;;;18.50;89.20;;;;;;6026483;23;20858;-46
2023/05/05 11:40:04;;;;;;;3.63;2.70;;;18.50;86.40;;;;;;6030563;23;20413;-46
2023/05/05 11:42:33;;;;;;;2.90;2.57;;;18.50;85.70;;;;;;6029016;23;20444;-44
2023/05/05 11:45:02;;;;;;;3.97;2.90;;;18.50;84.80;;;;;;6029194;23;20474;-45
2023/05/05 11:47:32;;;;;;;3.07;2.50;;;18.60;84.50;;;;;;6027516;23;20445;-45
2023/05/05 11:50:22;;;;;;;3.80;2.27;;;18.60;83.50;;;;;;6028220;23;20402;-45
2023/05/05 11:52:52;;;;;;;4.30;2.73;;;18.60;83.20;;;;;;6027951;23;20401;-45
2023/05/05 11:55:24;;;;;;;4.40;2.90;;;18.60;82.80;;;;;;6052697;23;20465;-47
2023/05/05 11:57:53;;;;;;;3.83;2.53;;;18.60;82.40;;;;;;6027462;23;20374;-46
2023/05/05 12:00:32;;;;;;;5.00;2.73;;;18.60;81.80;;;;;;6029543;23;20397;-46
2023/05/05 12:03:01;;;;;;;2.93;2.17;;;18.60;81.80;;;;;;6029123;23;20417;-46
2023/05/05 12:05:31;;;;;;;2.80;2.20;;;18.50;81.80;;;;;;6053515;23;20407;-45
2023/05/05 12:08:05;;;;;;;3.10;2.50;;;18.50;81.60;;;;;;6028256;23;20374;-46
2023/05/05 12:10:34;;;;;;;3.40;2.63;;;18.60;81.60;;;;;;6029291;23;20924;-47
2023/05/05 12:13:02;;;;;;;2.80;2.60;;;18.60;81.50;;;;;;6031180;23;20401;-49
2023/05/05 12:15:32;;;;;;;3.13;2.50;;;18.50;81.30;;;;;;6029887;23;20409;-50
2023/05/05 12:18:01;;;;;;;3.87;2.40;;;18.50;81.20;;;;;;6029656;23;20401;-49
2023/05/05 12:20:33;;;;;;;2.57;2.10;;;18.50;81.10;;;;;;6029842;23;20863;-49
2023/05/05 12:23:07;;;;;;;3.13;2.80;;;18.50;81.00;;;;;;6028655;23;20474;-48
2023/05/05 12:25:37;;;;;;;2.63;2.10;;;18.60;81.20;;;;;;6031825;23;20390;-49
2023/05/05 12:28:09;;;;;;;3.70;2.03;;;18.60;81.10;;;;;;6030129;23;20397;-48
2023/05/05 12:30:39;;;;;;;2.67;2.47;;;18.50;80.90;;;;;;6041717;23;20587;-50
2023/05/05 12:33:09;;;;;;;2.23;1.83;;;18.50;80.90;;;;;;6032816;23;20405;-51
2023/05/05 12:35:38;;;;;;;3.10;2.60;;;18.60;80.80;;;;;;6042377;23;20402;-47
2023/05/05 12:38:08;;;;;;;3.67;2.60;;;18.50;80.50;;;;;;6028546;23;20412;-47
2023/05/05 12:40:47;;;;;;;2.57;2.37;;;18.50;80.40;;;;;;6029043;23;20461;-47
2023/05/05 12:43:27;;;;;;;3.93;2.53;;;18.50;80.30;;;;;;6029990;23;20389;-48
2023/05/05 12:46:06;;;;;;;3.30;2.23;;;18.60;80.30;;;;;;6029660;23;20418;-49
2023/05/05 12:48:37;;;;;;;3.17;2.43;;;18.60;80.00;;;;;;6030693;23;20469;-50
2023/05/05 12:51:17;;;;;;;3.17;2.20;;;18.50;79.80;;;;;;6031288;23;20390;-48
2023/05/05 12:54:02;;;;;;;2.90;2.10;;;18.60;80.00;;;;;;6030554;23;20429;-49
2023/05/05 12:56:32;;;;;;;3.27;2.13;;;18.50;80.00;;;;;;6028146;23;20450;-48
2023/05/05 12:59:01;;;;;;;3.13;2.83;;;18.60;80.20;;;;;;6030338;23;20448;-48
2023/05/05 13:01:30;;;;;;;4.00;2.10;;;18.60;80.10;;;;;;6028098;23;20409;-48
2023/05/05 13:04:10;;;;;;;2.50;2.13;;;18.60;80.10;;;;;;6029774;23;20480;-49
2023/05/05 13:06:40;;;;;;;2.50;2.30;;;18.60;80.00;;;;;;6028635;23;20468;-48
2023/05/05 13:09:23;;;;;;;2.57;1.90;;;18.60;79.90;;;;;;6029287;23;20885;-48
2023/05/05 13:11:52;;;;;;;2.63;2.20;;;18.60;80.00;;;;;;6027948;23;20507;-50
2023/05/05 13:14:21;;;;;;;2.53;2.00;;;18.60;80.10;;;;;;6054197;23;20389;-48
2023/05/05 13:16:50;;;;;;;3.17;2.30;;;18.60;81.30;;;;;;6029818;23;20795;-47
2023/05/05 13:19:18;;;;;;;3.70;2.43;;;18.60;80.00;;;;;;6032061;23;20424;-48
2023/05/05 13:21:47;;;;;;;3.73;2.17;;;18.60;79.90;;;;;;6029525;23;20442;-47